Time,TemperatureF,DewpointF,PressureIn,WindDirection,WindDirectionDegrees,WindSpeedMPH,WindSpeedGustMPH,Humidity,HourlyPrecipIn,Conditions,Clouds,dailyrainin,SoftwareType,DateUTC
2013-01-15 15:24:00,30.0,-8.3,29.18,WSW,258,2.7,2.7,18,0.00,,---,0.00,VWS V14.00,2013-01-15 21:24:00,
2013-01-15 15:29:00,30.4,-8.0,29.15,SW,234,3.6,3.6,18,0.00,,---,0.00,VWS V14.00,2013-01-15 21:29:00,
2013-01-15 15:34:00,31.6,-7.0,29.15,SSW,213,5.4,5.4,18,0.00,,---,0.00,VWS V14.00,2013-01-15 21:34:00,
2013-01-15 15:39:00,30.2,-8.2,29.15,WNW,296,5.4,5.4,18,0.00,,---,0.00,VWS V14.00,2013-01-15 21:39:00,
2013-01-15 15:44:00,28.9,-9.2,29.15,WSW,247,3.1,6.3,18,0.00,,---,0.00,VWS V14.00,2013-01-15 21:44:00,
2013-01-15 15:49:00,28.2,-9.8,29.15,WSW,252,6.7,8.1,18,0.00,,---,0.00,VWS V14.00,2013-01-15 21:49:00,
2013-01-15 15:54:00,27.9,-10.1,29.15,WNW,290,4.5,10.1,18,0.00,,---,0.00,VWS V14.00,2013-01-15 21:54:00,
2013-01-15 15:59:00,27.9,-10.1,29.15,WSW,257,3.6,4.9,18,0.00,,---,0.00,VWS V14.00,2013-01-15 21:59:00,
2013-01-15 16:04:00,27.7,-10.3,29.15,SW,235,5.4,6.3,18,0.00,,---,0.00,VWS V14.00,2013-01-15 22:04:00,
2013-01-15 16:09:00,27.3,-10.6,29.15,SSW,209,4.0,4.9,18,0.00,,---,0.00,VWS V14.00,2013-01-15 22:09:00,
2013-01-15 16:14:00,27.1,-10.7,29.15,West,265,3.1,3.6,18,0.00,,---,0.00,VWS V14.00,2013-01-15 22:14:00,
2013-01-15 16:19:00,26.8,-11.0,29.15,WSW,237,4.0,5.4,18,0.00,,---,0.00,VWS V14.00,2013-01-15 22:19:00,
2013-01-15 16:24:00,26.6,-10.1,29.15,SW,221,3.6,5.8,19,0.00,,---,0.00,VWS V14.00,2013-01-15 22:24:00,
2013-01-15 16:29:00,26.2,-10.4,29.15,SW,233,3.1,3.1,19,0.00,,---,0.00,VWS V14.00,2013-01-15 22:29:00,
2013-01-15 16:34:00,26.1,-10.5,29.15,SW,235,2.2,3.6,19,0.00,,---,0.00,VWS V14.00,2013-01-15 22:34:00,
2013-01-15 16:39:00,25.7,-10.9,29.15,SW,230,0.0,3.6,19,0.00,,---,0.00,VWS V14.00,2013-01-15 22:39:00,
2013-01-15 16:44:00,25.2,-11.3,29.15,WSW,240,2.7,2.7,19,0.00,,---,0.00,VWS V14.00,2013-01-15 22:44:00,
2013-01-15 16:49:00,24.6,-11.8,29.15,West,278,2.2,2.2,19,0.00,,---,0.00,VWS V14.00,2013-01-15 22:49:00,
2013-01-15 16:54:00,24.3,-12.1,29.15,SW,229,5.4,7.6,19,0.00,,---,0.00,VWS V14.00,2013-01-15 22:54:00,
2013-01-15 16:59:00,24.4,-11.9,29.15,WSW,249,3.1,4.0,19,0.00,,---,0.00,VWS V14.00,2013-01-15 22:59:00,
2013-01-15 17:04:00,24.1,-12.2,29.15,South,180,2.7,3.6,19,0.00,,---,0.00,VWS V14.00,2013-01-15 23:04:00,
2013-01-15 17:09:00,23.7,-12.5,29.15,SW,225,4.9,4.9,19,0.00,,---,0.00,VWS V14.00,2013-01-15 23:09:00,
2013-01-15 17:14:00,23.5,-12.6,29.15,WSW,252,4.9,4.9,19,0.00,,---,0.00,VWS V14.00,2013-01-15 23:14:00,
2013-01-15 17:19:00,23.5,-12.6,29.15,SW,221,2.7,4.9,19,0.00,,---,0.00,VWS V14.00,2013-01-15 23:19:00,
2013-01-15 17:24:00,23.4,-12.8,29.15,WSW,240,4.9,4.9,19,0.00,,---,0.00,VWS V14.00,2013-01-15 23:24:00,
2013-01-15 17:29:00,23.5,-12.6,29.15,South,187,2.7,4.0,19,0.00,,---,0.00,VWS V14.00,2013-01-15 23:29:00,
2013-01-15 17:34:00,23.2,-12.9,29.15,WSW,251,2.2,4.0,19,0.00,,---,0.00,VWS V14.00,2013-01-15 23:34:00,
2013-01-15 17:39:00,22.8,-12.2,29.15,SW,218,2.7,5.4,20,0.00,,---,0.00,VWS V14.00,2013-01-15 23:39:00,
2013-01-15 17:44:00,22.5,-10.6,29.15,SSW,203,0.0,0.0,22,0.00,,---,0.00,VWS V14.00,2013-01-15 23:44:00,
2013-01-15 17:49:00,22.1,-10.9,29.15,SSW,213,0.0,2.7,22,0.00,,---,0.00,VWS V14.00,2013-01-15 23:49:00,
2013-01-15 17:54:00,21.9,-11.1,29.15,SW,215,2.2,2.7,22,0.00,,---,0.00,VWS V14.00,2013-01-15 23:54:00,
2013-01-15 17:59:00,21.6,-11.4,29.12,NW,325,2.7,2.7,22,0.00,,---,0.00,VWS V14.00,2013-01-15 23:59:00,
2013-01-15 18:04:00,21.4,-11.5,29.12,South,177,0.0,0.0,22,0.00,,---,0.00,VWS V14.00,2013-01-16 00:04:00,
2013-01-15 18:09:00,21.2,-11.7,29.12,SSW,200,0.0,0.0,22,0.00,,---,0.00,VWS V14.00,2013-01-16 00:09:00,
2013-01-15 18:14:00,21.2,-11.7,29.12,SSW,196,0.0,0.0,22,0.00,,---,0.00,VWS V14.00,2013-01-16 00:14:00,
2013-01-15 18:19:00,21.0,-11.9,29.12,South,182,2.2,4.0,22,0.00,,---,0.00,VWS V14.00,2013-01-16 00:19:00,
2013-01-15 18:24:00,20.8,-12.0,29.12,SW,216,2.7,4.9,22,0.00,,---,0.00,VWS V14.00,2013-01-16 00:24:00,
2013-01-15 18:29:00,21.0,-11.9,29.12,WSW,249,0.0,3.1,22,0.00,,---,0.00,VWS V14.00,2013-01-16 00:29:00,
2013-01-15 18:34:00,21.0,-11.9,29.12,SSW,212,3.1,3.1,22,0.00,,---,0.00,VWS V14.00,2013-01-16 00:34:00,
2013-01-15 18:39:00,20.8,-12.0,29.12,NW,316,0.0,3.1,22,0.00,,---,0.00,VWS V14.00,2013-01-16 00:39:00,
2013-01-15 18:44:00,20.7,-12.2,29.12,WSW,240,2.2,3.1,22,0.00,,---,0.00,VWS V14.00,2013-01-16 00:44:00,
2013-01-15 18:49:00,20.7,-12.2,29.12,South,186,3.1,3.1,22,0.00,,---,0.00,VWS V14.00,2013-01-16 00:49:00,
2013-01-15 18:54:00,20.7,-12.2,29.12,SSW,193,3.1,3.1,22,0.00,,---,0.00,VWS V14.00,2013-01-16 00:54:00,
2013-01-15 18:59:00,20.7,-12.2,29.12,South,179,2.7,3.6,22,0.00,,---,0.00,VWS V14.00,2013-01-16 00:59:00,
2013-01-15 19:04:00,20.7,-12.2,29.12,SSW,212,3.1,4.0,22,0.00,,---,0.00,VWS V14.00,2013-01-16 01:04:00,
2013-01-15 19:09:00,20.7,-12.2,29.12,SSW,200,0.0,2.2,22,0.00,,---,0.00,VWS V14.00,2013-01-16 01:09:00,
2013-01-15 19:14:00,20.8,-12.0,29.12,SW,235,3.1,3.1,22,0.00,,---,0.00,VWS V14.00,2013-01-16 01:14:00,
2013-01-15 19:19:00,20.8,-12.0,29.12,SW,227,3.6,4.9,22,0.00,,---,0.00,VWS V14.00,2013-01-16 01:19:00,
2013-01-15 19:24:00,20.8,-12.0,29.12,South,187,2.2,3.1,22,0.00,,---,0.00,VWS V14.00,2013-01-16 01:24:00,
2013-01-15 19:29:00,20.8,-12.0,29.09,South,190,2.7,4.0,22,0.00,,---,0.00,VWS V14.00,2013-01-16 01:29:00,
2013-01-15 19:34:00,20.8,-12.0,29.09,SSE,157,4.0,4.0,22,0.00,,---,0.00,VWS V14.00,2013-01-16 01:34:00,
2013-01-15 19:39:00,20.8,-12.0,29.09,SW,226,2.2,2.7,22,0.00,,---,0.00,VWS V14.00,2013-01-16 01:39:00,
2013-01-15 19:44:00,20.7,-12.2,29.09,West,268,3.1,3.1,22,0.00,,---,0.00,VWS V14.00,2013-01-16 01:44:00,
2013-01-15 19:49:00,20.7,-12.2,29.09,SW,234,4.9,4.9,22,0.00,,---,0.00,VWS V14.00,2013-01-16 01:49:00,
2013-01-15 19:54:00,20.5,-12.3,29.09,SSW,212,2.2,3.1,22,0.00,,---,0.00,VWS V14.00,2013-01-16 01:54:00,
2013-01-15 19:59:00,20.3,-12.5,29.09,WSW,238,6.3,8.1,22,0.00,,---,0.00,VWS V14.00,2013-01-16 01:59:00,
2013-01-15 20:04:00,20.1,-12.6,29.09,SW,218,2.7,2.7,22,0.00,,---,0.00,VWS V14.00,2013-01-16 02:04:00,
2013-01-15 20:09:00,19.9,-12.8,29.09,South,187,2.2,4.0,22,0.00,,---,0.00,VWS V14.00,2013-01-16 02:09:00,
2013-01-15 20:14:00,19.9,-12.8,29.09,SSW,200,2.7,3.1,22,0.00,,---,0.00,VWS V14.00,2013-01-16 02:14:00,
2013-01-15 20:19:00,19.9,-12.8,29.09,WSW,244,2.2,2.7,22,0.00,,---,0.00,VWS V14.00,2013-01-16 02:19:00,
2013-01-15 20:24:00,19.8,-12.9,29.09,South,186,9.6,9.6,22,0.00,,---,0.00,VWS V14.00,2013-01-16 02:24:00,
2013-01-15 20:29:00,19.9,-12.8,29.09,SSW,209,0.0,2.2,22,0.00,,---,0.00,VWS V14.00,2013-01-16 02:29:00,
2013-01-15 20:34:00,19.6,-13.1,29.06,WSW,247,0.0,2.2,22,0.00,,---,0.00,VWS V14.00,2013-01-16 02:34:00,
2013-01-15 20:39:00,19.6,-13.1,29.06,SSW,201,0.0,0.0,22,0.00,,---,0.00,VWS V14.00,2013-01-16 02:39:00,
2013-01-15 20:44:00,19.4,-12.3,29.06,SW,223,0.0,5.4,23,0.00,,---,0.00,VWS V14.00,2013-01-16 02:44:00,
2013-01-15 20:49:00,19.4,-12.3,29.06,WSW,238,2.7,3.6,23,0.00,,---,0.00,VWS V14.00,2013-01-16 02:49:00,
2013-01-15 20:54:00,19.4,-12.3,29.06,SW,231,0.0,0.0,23,0.00,,---,0.00,VWS V14.00,2013-01-16 02:54:00,
2013-01-15 20:59:00,19.2,-12.5,29.06,WSW,240,3.6,3.6,23,0.00,,---,0.00,VWS V14.00,2013-01-16 02:59:00,
2013-01-15 21:04:00,19.2,-10.8,29.06,SW,236,2.2,3.6,25,0.00,,---,0.00,VWS V14.00,2013-01-16 03:04:00,
2013-01-15 21:09:00,19.2,-10.8,29.06,SSW,211,3.6,3.6,25,0.00,,---,0.00,VWS V14.00,2013-01-16 03:09:00,
2013-01-15 21:14:00,19.4,-12.3,29.06,SW,226,3.6,3.6,23,0.00,,---,0.00,VWS V14.00,2013-01-16 03:14:00,
2013-01-15 21:19:00,19.6,-13.1,29.06,SW,234,4.0,4.9,22,0.00,,---,0.00,VWS V14.00,2013-01-16 03:19:00,
2013-01-15 21:24:00,19.8,-12.9,29.06,West,275,2.7,4.0,22,0.00,,---,0.00,VWS V14.00,2013-01-16 03:24:00,
2013-01-15 21:29:00,20.1,-12.6,29.06,WSW,250,4.5,4.5,22,0.00,,---,0.00,VWS V14.00,2013-01-16 03:29:00,
2013-01-15 21:34:00,20.1,-12.6,29.06,West,280,4.0,4.0,22,0.00,,---,0.00,VWS V14.00,2013-01-16 03:34:00,
2013-01-15 21:39:00,19.9,-12.8,29.06,West,265,2.2,2.2,22,0.00,,---,0.00,VWS V14.00,2013-01-16 03:39:00,
2013-01-15 21:44:00,19.6,-13.1,29.06,WSW,246,2.7,3.1,22,0.00,,---,0.00,VWS V14.00,2013-01-16 03:44:00,
2013-01-15 21:49:00,19.2,-12.5,29.06,South,184,3.1,5.4,23,0.00,,---,0.00,VWS V14.00,2013-01-16 03:49:00,
2013-01-15 21:54:00,18.9,-12.8,29.06,SW,222,3.6,5.8,23,0.00,,---,0.00,VWS V14.00,2013-01-16 03:54:00,
2013-01-15 21:59:00,18.5,-11.4,29.06,South,191,0.0,0.0,25,0.00,,---,0.00,VWS V14.00,2013-01-16 03:59:00,
2013-01-15 22:04:00,18.1,-11.8,29.03,South,187,0.0,0.0,25,0.00,,---,0.00,VWS V14.00,2013-01-16 04:04:00,
2013-01-15 22:09:00,18.1,-9.5,29.03,West,261,0.0,0.0,28,0.00,,---,0.00,VWS V14.00,2013-01-16 04:09:00,
2013-01-15 22:14:00,18.1,-9.5,29.03,SSW,208,2.7,2.7,28,0.00,,---,0.00,VWS V14.00,2013-01-16 04:14:00,
2013-01-15 22:19:00,18.0,-9.6,29.03,South,177,0.0,2.2,28,0.00,,---,0.00,VWS V14.00,2013-01-16 04:19:00,
2013-01-15 22:24:00,17.8,-8.4,29.03,SSW,211,0.0,0.0,30,0.00,,---,0.00,VWS V14.00,2013-01-16 04:24:00,
2013-01-15 22:29:00,17.8,-9.8,29.03,West,261,0.0,2.2,28,0.00,,---,0.00,VWS V14.00,2013-01-16 04:29:00,
2013-01-15 22:34:00,18.0,-9.6,29.03,WSW,248,3.1,3.1,28,0.00,,---,0.00,VWS V14.00,2013-01-16 04:34:00,
2013-01-15 22:39:00,17.8,-9.8,29.03,SW,225,2.7,2.7,28,0.00,,---,0.00,VWS V14.00,2013-01-16 04:39:00,
2013-01-15 22:44:00,17.6,-9.9,29.03,SW,223,3.6,3.6,28,0.00,,---,0.00,VWS V14.00,2013-01-16 04:44:00,
2013-01-15 22:49:00,17.4,-8.0,29.00,WSW,245,0.0,2.7,31,0.00,,---,0.00,VWS V14.00,2013-01-16 04:49:00,
2013-01-15 22:54:00,17.2,-8.2,29.00,WSW,256,2.7,3.6,31,0.00,,---,0.00,VWS V14.00,2013-01-16 04:54:00,
2013-01-15 22:59:00,17.1,-7.1,29.00,SSW,201,2.7,3.1,33,0.00,,---,0.00,VWS V14.00,2013-01-16 04:59:00,
2013-01-15 23:00:00,17.1,-7.1,29.00,SW,218,0.0,0.0,33,0.00,,---,0.00,VWS V14.00,2013-01-16 05:00:00,
2013-01-15 23:01:00,17.1,-8.4,29.00,West,278,2.7,3.1,31,0.00,,---,0.00,VWS V14.00,2013-01-16 05:01:00,
2013-01-15 23:06:00,16.9,-6.6,29.00,West,271,3.1,5.4,34,0.00,,---,0.00,VWS V14.00,2013-01-16 05:06:00,
2013-01-15 23:11:00,17.1,-7.1,29.00,SW,224,3.1,3.1,33,0.00,,---,0.00,VWS V14.00,2013-01-16 05:11:00,
2013-01-15 23:16:00,16.9,-8.5,29.00,West,268,0.0,0.0,31,0.00,,---,0.00,VWS V14.00,2013-01-16 05:16:00,
2013-01-15 23:21:00,16.7,-6.8,29.00,WSW,253,3.1,4.0,34,0.00,,---,0.00,VWS V14.00,2013-01-16 05:21:00,
2013-01-15 23:26:00,17.1,-6.5,29.00,WSW,246,2.7,2.7,34,0.00,,---,0.00,VWS V14.00,2013-01-16 05:26:00,
2013-01-15 23:31:00,17.1,-6.5,29.00,SW,235,3.6,3.6,34,0.00,,---,0.00,VWS V14.00,2013-01-16 05:31:00,
2013-01-15 23:36:00,17.1,-6.5,29.00,West,260,2.7,2.7,34,0.00,,---,0.00,VWS V14.00,2013-01-16 05:36:00,
2013-01-15 23:41:00,17.2,-6.9,29.00,SSW,195,2.7,3.1,33,0.00,,---,0.00,VWS V14.00,2013-01-16 05:41:00,
2013-01-15 23:46:00,16.9,-6.6,28.97,SW,227,4.9,5.4,34,0.00,,---,0.00,VWS V14.00,2013-01-16 05:46:00,
2013-01-15 23:51:00,16.9,-6.6,28.97,SW,232,3.1,4.0,34,0.00,,---,0.00,VWS V14.00,2013-01-16 05:51:00,
2013-01-15 23:56:00,16.7,-6.8,28.97,SW,235,5.4,5.4,34,0.00,,---,0.00,VWS V14.00,2013-01-16 05:56:00,